Aérodrome :
LOGIN :

S'inscrire | Disclaimer

   EN    FR    IT 

 










Légende :    VFR   VFR Marginal   IFR   IFR Intensif   IFR Très Intensif
Visi : 
Plafond : 
>= 8 km
>= 3000ft
5 à 8 km
1000 à 3000 ft
1500m à 5 km
500 à 1000 ft
800 à 1500m
200 à 500 ft
< 800m
< 200 ft
Symboles :   Orages  Brouillard  Fortes neiges  Fortes précipitations  Vent > 20 kt
SIGMETs :   Divers  Orages  Givrage  Turbulence  Onde Orograph.  Cendres Volcan.






- Altitude de l'aérodrome : 255 ft


ENGC - Gullfaks C oil platform

DERNIER METAR :
  • 050750Z 09007KT 9999 BKN050 07/00 Q1004 W07/S5

METARs EXPIRÉS :
  • 050720Z 08009KT 9999 FEW035 BKN050 07/00 Q1003 W08/S5
  • 050650Z 08010KT 9999 FEW035 BKN055 07/00 Q1003 W07/S5
  • 050620Z 08009KT 9999 FEW020 SCT035 BKN060 07/01 Q1002 W07/S5
  • 050550Z 07010KT 9999 FEW030 BKN060 07/01 Q1002 W07/S5
  • 050520Z 06009KT 9999 FEW030 07/02 Q1002 W07/S5

TAF TAF ENGC
Valide du 05 à 06h jusqu'au 06 à 06h UTC


0506/0606 05015KT 9999 FEW010 BKN030
PROB40
TEMPO 0506/0509 BKN014TCU
BECMG 0514/0517 04025KT
TEMPO 0518/0524 SHRA BKN014TCU
BECMG 0601/0603 09012KT



MET'MAP, la Météo Aéronautique d'un coup d'oeil ! - Copyright ORBIFLY Décembre 2007 - Disclaimer

ORBIFLY MET'MAP TEAM :

Programmation & Développement : Alexandra Zaïnal
Sur une idée originale de : Baudouin d'Aumeries
Assistance à la programmation : Marc-Olivier Méhu
Soutien technique & logistique : Manuel Goepfert

Contact : metmap@orbifly.com




SOURCES & CREDITS :

   NOAA